| Date | Time | Temp. (oF) | Dew Point (oF) | Rel. Hum. (%) | Press. (in.) | Wind Dir. | Wind Speed (mph) | Hourly Rainfall (in.) |
|
|---|---|---|---|---|---|---|---|---|---|
| 1 | 05/27 | 00:00 | 67 | 66 | 97 | 29.85 | SW | 0 | 0.00 |
| 2 | 05/26 | 23:00 | 67 | 65 | 94 | 29.86 | SW | 0 | 0.01 |
| 3 | 05/26 | 22:00 | 68 | 64 | 89 | 29.87 | SSE | 0 | 0.14 |
| 4 | 05/26 | 21:00 | 76 | 64 | 67 | 29.87 | WNW | 0 | 0.04 |
| 5 | 05/26 | 20:00 | 78 | 58 | 51 | 29.82 | SSW | 0 | 0.00 |
| 6 | 05/26 | 19:00 | 82 | 58 | 46 | 29.77 | S | 4 | 0.00 |
| 7 | 05/26 | 18:00 | 84 | 59 | 44 | 29.76 | SSW | 4 | 0.00 |
| 8 | 05/26 | 17:00 | 84 | 58 | 43 | 29.76 | SSE | 13 | 0.00 |
| 9 | 05/26 | 16:00 | 84 | 57 | 41 | 29.80 | SSE | 5 | 0.00 |
| 10 | 05/26 | 15:00 | 83 | 57 | 42 | 29.85 | SW | 5 | 0.00 |
| 11 | 05/26 | 14:00 | 82 | 55 | 41 | 29.87 | SSW | 10 | 0.00 |
| 12 | 05/26 | 13:00 | 80 | 58 | 49 | 29.90 | S | 5 | 0.00 |
| 13 | 05/26 | 12:00 | 76 | 55 | 50 | 29.94 | SW | 6 | 0.00 |
| 14 | 05/26 | 11:00 | 75 | 56 | 53 | 29.96 | SSW | 4 | 0.00 |
| 15 | 05/26 | 10:00 | 73 | 54 | 53 | 29.97 | S | 3 | 0.00 |
| 16 | 05/26 | 09:00 | 70 | 53 | 57 | 30.00 | S | 0 | 0.00 |
| 17 | 05/26 | 08:00 | 63 | 50 | 64 | 30.02 | S | 5 | 0.00 |
| 18 | 05/26 | 07:00 | 59 | 48 | 68 | 30.02 | SSW | 5 | 0.00 |
| 19 | 05/26 | 06:00 | 57 | 46 | 69 | 30.02 | SSW | 6 | 0.00 |
| 20 | 05/26 | 05:00 | 55 | 45 | 70 | 30.02 | S | 0 | 0.00 |
| 21 | 05/26 | 04:00 | 56 | 45 | 67 | 30.01 | SSW | 1 | 0.00 |
| 22 | 05/26 | 03:00 | 57 | 44 | 62 | 30.00 | SSW | 2 | 0.00 |
| 23 | 05/26 | 02:00 | 60 | 44 | 57 | 30.00 | SW | 3 | 0.00 |
| 24 | 05/26 | 01:00 | 58 | 44 | 60 | 30.01 | SW | 2 | 0.00 |